Terminal Aerodrome Forecast
Issued by NWS

Home | Current Version | Previous Version | Text Only | Print | Product List | Glossary On
Versions: 1 2 3 4 5 6 7 8 9 10 11 12 13 14 15 16 17 18 19 20 21
000
FTUS42 KMLB 261300 AAA
TAFFPR
TAF AMD
KFPR 261320Z 2613/2712 24008KT P6SM VCSH BKN015 OVC050
      TEMPO 2613/2616 VRB15G25KT 3SM +SHRA BKN009 BKN020 OVC030
     FM261700 32012G18KT P6SM SCT025 BKN040 OVC250
     FM262300 32008KT P6SM BKN250=

USA.gov is the U.S. government's official web portal to all federal, state and local government web resources and services.